createdAt,value
2023-02-08T00:00:20.129Z,10.80
2023-02-08T00:01:19.370Z,10.39
2023-02-08T00:02:19.454Z,10.30
2023-02-08T00:03:19.278Z,11.5
2023-02-08T00:04:18.887Z,10.89
2023-02-08T00:05:18.939Z,10.30
2023-02-08T00:06:19.657Z,11
2023-02-08T00:07:19.683Z,10
2023-02-08T00:08:19.100Z,10.89
2023-02-08T00:09:19.056Z,11
2023-02-08T00:10:19.480Z,10
2023-02-08T00:11:19.255Z,10.19
2023-02-08T00:12:19.494Z,9.699
2023-02-08T00:13:18.636Z,10.39
2023-02-08T00:14:19.450Z,9.800
2023-02-08T00:15:19.662Z,11.10
2023-02-08T00:16:19.485Z,9.699
2023-02-08T00:17:19.867Z,10.5
2023-02-08T00:18:19.092Z,9.899
2023-02-08T00:19:19.047Z,10.30
2023-02-08T00:20:18.969Z,9.399
2023-02-08T00:21:18.552Z,9.800
2023-02-08T00:22:19.571Z,9.399
2023-02-08T00:23:19.066Z,10
2023-02-08T00:24:18.924Z,10.30
2023-02-08T00:25:18.874Z,9.699
2023-02-08T00:26:18.894Z,9.300
2023-02-08T00:27:18.604Z,10.80
2023-02-08T00:28:19.177Z,9.5
2023-02-08T00:29:18.988Z,10
2023-02-08T00:30:19.253Z,9.399
2023-02-08T00:31:19.073Z,11
2023-02-08T00:32:18.988Z,10.69
2023-02-08T00:33:19.325Z,8.899
2023-02-08T00:34:19.142Z,9.800
2023-02-08T00:35:19.390Z,9.5
2023-02-08T00:36:19.247Z,9.199
2023-02-08T00:37:18.665Z,9.5
2023-02-08T00:39:19.720Z,10.19
2023-02-08T00:40:19.541Z,9.100
2023-02-08T00:41:19.014Z,10.10
2023-02-08T00:42:18.674Z,9.300
2023-02-08T00:43:18.462Z,10.60
2023-02-08T00:44:19.108Z,9
2023-02-08T00:45:19.018Z,9.699
2023-02-08T00:46:19.118Z,9.100
2023-02-08T00:47:18.914Z,9.300
2023-02-08T00:48:19.563Z,9.399
2023-02-08T00:49:18.513Z,9.800
2023-02-08T00:50:19.047Z,10.10
2023-02-08T00:51:18.891Z,10
2023-02-08T00:52:19.168Z,10.5
2023-02-08T00:53:19.182Z,10.39
2023-02-08T00:54:18.667Z,11
2023-02-08T00:55:19.730Z,10.30
2023-02-08T00:56:18.945Z,9.899
2023-02-08T00:58:18.830Z,11.10
2023-02-08T00:59:19.045Z,8.800
2023-02-08T01:00:19.999Z,9.899
2023-02-08T01:01:21.702Z,9.600
2023-02-08T01:02:18.592Z,10
2023-02-08T01:03:19.047Z,9.199
2023-02-08T01:04:18.465Z,9.100
2023-02-08T01:05:18.806Z,9.600
2023-02-08T01:06:19.248Z,10.5
2023-02-08T01:07:18.464Z,9.100
2023-02-08T01:08:19.215Z,9.399
2023-02-08T01:09:18.759Z,10.10
2023-02-08T01:10:19.021Z,8.600
2023-02-08T01:11:19.444Z,10.10
2023-02-08T01:12:19.586Z,8.800
2023-02-08T01:13:19.083Z,9.5
2023-02-08T01:14:18.821Z,9.699
2023-02-08T01:15:19.474Z,9.300
2023-02-08T01:16:18.990Z,9.800
2023-02-08T01:17:19.361Z,10
2023-02-08T01:18:19.624Z,9.100
2023-02-08T01:19:19.234Z,9.800
2023-02-08T01:20:20.137Z,9.199
2023-02-08T01:21:20.034Z,8.899
2023-02-08T01:22:19.928Z,10.10
2023-02-08T01:23:20.115Z,9.399
2023-02-08T01:24:19.684Z,10.39
2023-02-08T01:25:19.403Z,9.800
2023-02-08T01:26:19.497Z,9
2023-02-08T01:27:19.306Z,9.100
2023-02-08T01:28:19.142Z,9.399
2023-02-08T01:29:19.927Z,8.800
2023-02-08T01:30:20.261Z,8.5
2023-02-08T01:31:19.336Z,10.60
2023-02-08T01:32:20.139Z,8.5
2023-02-08T01:33:19.825Z,9.800
2023-02-08T01:34:19.619Z,10.10
2023-02-08T01:35:19.459Z,9.199
2023-02-08T01:36:19.526Z,7.800
2023-02-08T01:37:19.803Z,9.300
2023-02-08T01:38:19.927Z,10.80
2023-02-08T01:39:19.207Z,10.19
2023-02-08T01:40:19.633Z,10.39
2023-02-08T01:41:19.334Z,9.199
2023-02-08T01:42:19.908Z,9.399
2023-02-08T01:43:19.288Z,10.19
2023-02-08T01:44:19.026Z,8.800
2023-02-08T01:45:19.725Z,9.399
2023-02-08T01:46:19.634Z,9.199
2023-02-08T01:47:18.808Z,10.5
2023-02-08T01:48:19.708Z,9.300
2023-02-08T01:49:18.893Z,9.600
2023-02-08T01:50:19.293Z,8.899
2023-02-08T01:51:18.864Z,8.800
2023-02-08T01:52:19.805Z,9.800
2023-02-08T01:53:19.330Z,9.100
2023-02-08T01:54:19.835Z,9.399
2023-02-08T01:55:19.834Z,9.199
2023-02-08T01:56:19.671Z,8.300
2023-02-08T01:57:19.098Z,8.899
2023-02-08T01:58:19.354Z,9.100
2023-02-08T01:59:19.416Z,9.699
2023-02-08T02:00:21.108Z,9.399
2023-02-08T02:01:19.280Z,8.699
2023-02-08T02:02:19.545Z,10
2023-02-08T02:03:18.795Z,8.399
2023-02-08T02:04:18.670Z,9.100
2023-02-08T02:05:19.028Z,8.800
2023-02-08T02:06:19.051Z,9.100
2023-02-08T02:07:18.343Z,9.300
2023-02-08T02:08:19.382Z,10.80
2023-02-08T02:09:19.353Z,9.699
2023-02-08T02:10:19.415Z,9.5
2023-02-08T02:11:18.704Z,9.800
2023-02-08T02:12:18.913Z,8.199
2023-02-08T02:13:18.822Z,9
2023-02-08T02:14:19.156Z,9.600
2023-02-08T02:15:19.542Z,8.600
2023-02-08T02:16:18.496Z,10.39
2023-02-08T02:17:18.685Z,9.5
2023-02-08T02:19:18.693Z,10.19
2023-02-08T02:20:19.160Z,8.600
2023-02-08T02:21:18.918Z,10.10
2023-02-08T02:22:19.433Z,9
2023-02-08T02:23:19.389Z,9.199
2023-02-08T02:25:19.170Z,9.5
2023-02-08T02:26:18.902Z,9.300
2023-02-08T02:27:18.286Z,8.5
2023-02-08T02:28:19.039Z,9.399
2023-02-08T02:29:18.995Z,9.899
2023-02-08T02:30:19.401Z,10.10
2023-02-08T02:31:18.721Z,8.699
2023-02-08T02:32:19.104Z,9.600
2023-02-08T02:33:18.898Z,8.800
2023-02-08T02:34:19.031Z,10.80
2023-02-08T02:35:18.850Z,9.800
2023-02-08T02:36:18.560Z,9.600
2023-02-08T02:37:18.950Z,8.800
2023-02-08T02:38:19.308Z,9.399
2023-02-08T02:39:18.978Z,9.100
2023-02-08T02:40:18.916Z,8.699
2023-02-08T02:41:18.780Z,9.199
2023-02-08T02:42:18.791Z,8.800
2023-02-08T02:43:18.437Z,9.800
2023-02-08T02:44:19.039Z,10.80
2023-02-08T02:45:19.411Z,8.199
2023-02-08T02:46:19.256Z,9.100
2023-02-08T02:47:19.524Z,9.800
2023-02-08T02:48:18.979Z,9.100
2023-02-08T02:49:18.990Z,8.600
2023-02-08T02:50:19.159Z,9.600
2023-02-08T02:51:19.625Z,9.399
2023-02-08T02:52:19.191Z,10.10
2023-02-08T02:53:18.565Z,9.300
2023-02-08T02:54:19.256Z,8.399
2023-02-08T02:55:19.757Z,9.300
2023-02-08T02:56:18.830Z,8.899
2023-02-08T02:57:18.839Z,9.899
2023-02-08T02:58:19.007Z,10.10
2023-02-08T02:59:18.857Z,8
2023-02-08T03:00:19.749Z,8.899
2023-02-08T03:01:19.057Z,8.800
2023-02-08T03:02:19.294Z,9.699
2023-02-08T03:03:19.151Z,8.800
2023-02-08T03:04:19.050Z,8.600
2023-02-08T03:05:19.326Z,8.899
2023-02-08T03:06:19.081Z,9.300
2023-02-08T03:07:19.333Z,7.900
2023-02-08T03:08:18.862Z,8.5
2023-02-08T03:09:19.984Z,8.800
2023-02-08T03:10:20.634Z,9.5
2023-02-08T03:11:19.522Z,8.899
2023-02-08T03:12:19.752Z,10.19
2023-02-08T03:13:19.242Z,8.600
2023-02-08T03:14:19.277Z,8.899
2023-02-08T03:15:19.437Z,8.300
2023-02-08T03:16:19.451Z,9.100
2023-02-08T03:17:19.147Z,9.199
2023-02-08T03:18:19.579Z,8.399
2023-02-08T03:19:19.231Z,8.300
2023-02-08T03:20:19.638Z,8.899
2023-02-08T03:21:19.720Z,9.600
2023-02-08T03:22:19.714Z,9.100
2023-02-08T03:23:19.225Z,8
2023-02-08T03:24:18.889Z,8.699
2023-02-08T03:25:19.276Z,8.5
2023-02-08T03:26:19.450Z,9.800
2023-02-08T03:27:19.376Z,8.600
2023-02-08T03:28:18.376Z,9.899
2023-02-08T03:29:19.208Z,9.699
2023-02-08T03:30:19.839Z,8.800
2023-02-08T03:31:19.850Z,8.199
2023-02-08T03:32:20.205Z,9
2023-02-08T03:33:19.436Z,8.199
2023-02-08T03:34:19.886Z,8.800
2023-02-08T03:35:20.147Z,8.5
2023-02-08T03:36:20.114Z,9.100
2023-02-08T03:37:19.668Z,8.800
2023-02-08T03:38:19.815Z,9
2023-02-08T03:39:19.685Z,7.5
2023-02-08T03:40:19.761Z,9
2023-02-08T03:41:19.895Z,8.199
2023-02-08T03:42:19.987Z,9
2023-02-08T03:43:19.811Z,8.300
2023-02-08T03:44:20.150Z,8.699
2023-02-08T03:45:19.847Z,9.100
2023-02-08T03:46:19.481Z,9
2023-02-08T03:47:19.705Z,9.699
2023-02-08T03:48:19.668Z,9.399
2023-02-08T03:49:19.615Z,12.10
2023-02-08T03:50:20.074Z,9.399
2023-02-08T03:51:19.167Z,9.800
2023-02-08T03:52:20.066Z,9.899
2023-02-08T03:53:19.785Z,10.69
2023-02-08T03:54:20.056Z,8.800
2023-02-08T03:55:20.250Z,9.600
2023-02-08T03:56:19.679Z,10.10
2023-02-08T03:57:19.826Z,10.80
2023-02-08T03:58:19.773Z,9
2023-02-08T03:59:19.761Z,9.399
2023-02-08T04:00:20.352Z,9.199
2023-02-08T04:01:19.300Z,10.80
2023-02-08T04:02:19.195Z,9.600
2023-02-08T04:03:19.331Z,9.899
2023-02-08T04:04:19.196Z,8.800
2023-02-08T04:06:19.558Z,8.899
2023-02-08T04:07:19.444Z,9.899
2023-02-08T04:08:19.628Z,10.60
2023-02-08T04:09:19.438Z,10
2023-02-08T04:11:19.317Z,10.10
2023-02-08T04:12:19.395Z,8.600
2023-02-08T04:13:19.404Z,8.800
2023-02-08T04:14:19.077Z,9.100
2023-02-08T04:15:19.380Z,9.5
2023-02-08T04:17:20.230Z,9.300
2023-02-08T04:18:19.189Z,8.5
2023-02-08T04:19:20.030Z,9.300
2023-02-08T04:20:19.425Z,8.199
2023-02-08T04:21:19.326Z,9
2023-02-08T04:22:19.449Z,11.19
2023-02-08T04:23:19.460Z,9.399
2023-02-08T04:24:19.414Z,8.300
2023-02-08T04:25:19.948Z,8.5
2023-02-08T04:26:19.713Z,8.300
2023-02-08T04:27:19.716Z,9.399
2023-02-08T04:28:19.664Z,8.5
2023-02-08T04:29:18.678Z,8.300
2023-02-08T04:31:18.787Z,9.100
2023-02-08T04:32:19.286Z,8.199
2023-02-08T04:33:19.275Z,8.600
2023-02-08T04:34:19.721Z,9.800
2023-02-08T04:35:18.704Z,8.800
2023-02-08T04:36:19.165Z,8.5
2023-02-08T04:37:18.986Z,8.399
2023-02-08T04:38:19.355Z,7.900
2023-02-08T04:39:18.781Z,8.399
2023-02-08T04:40:19.330Z,8.100
2023-02-08T04:41:19.178Z,8.600
2023-02-08T04:42:19.365Z,8.300
2023-02-08T04:43:18.772Z,9
2023-02-08T04:44:18.505Z,8.600
2023-02-08T04:45:19.431Z,9.199
2023-02-08T04:46:18.831Z,10.89
2023-02-08T04:47:18.244Z,8.899
2023-02-08T04:48:19.085Z,9
2023-02-08T04:49:18.879Z,8.899
2023-02-08T04:50:19.098Z,9.100
2023-02-08T04:51:18.644Z,8.800
2023-02-08T04:52:18.263Z,9.100
2023-02-08T04:53:18.630Z,7.900
2023-02-08T04:54:18.991Z,9.199
2023-02-08T04:55:18.834Z,9.399
2023-02-08T04:56:18.874Z,10.19
2023-02-08T04:57:18.863Z,8.699
2023-02-08T04:58:18.313Z,9
2023-02-08T04:59:18.782Z,9.5
2023-02-08T05:00:19.431Z,8.5
2023-02-08T05:01:19.754Z,8.300
2023-02-08T05:02:18.722Z,9
2023-02-08T05:03:18.605Z,9.5
2023-02-08T05:04:19.554Z,8.899
2023-02-08T05:05:19.339Z,9
2023-02-08T05:06:19.109Z,8.199
2023-02-08T05:07:18.363Z,8.800
2023-02-08T05:08:18.725Z,8.100
2023-02-08T05:09:19.112Z,8.600
2023-02-08T05:10:19.215Z,9.199
2023-02-08T05:11:19.302Z,8.5
2023-02-08T05:12:19.544Z,8.699
2023-02-08T05:13:18.563Z,9.100
2023-02-08T05:14:19.362Z,8.600
2023-02-08T05:15:19.509Z,9.300
2023-02-08T05:16:18.705Z,10.19
2023-02-08T05:17:18.641Z,10
2023-02-08T05:18:18.509Z,9.800
2023-02-08T05:19:19.094Z,9.600
2023-02-08T05:21:18.657Z,10.5
2023-02-08T05:22:18.569Z,8.899
2023-02-08T05:23:19.383Z,11.89
2023-02-08T05:24:18.869Z,11
2023-02-08T05:25:18.651Z,10.80
2023-02-08T05:26:18.513Z,9.399
2023-02-08T05:27:18.417Z,9.600
2023-02-08T05:28:19.111Z,9.399
2023-02-08T05:29:19.201Z,9.800
2023-02-08T05:30:19.693Z,10.60
2023-02-08T05:31:18.491Z,8.399
2023-02-08T05:32:19.441Z,9.5
2023-02-08T05:33:19.170Z,9.199
2023-02-08T05:34:18.924Z,10.10
2023-02-08T05:35:19.568Z,9.199
2023-02-08T05:37:18.973Z,9.800
2023-02-08T05:38:18.975Z,9.399
2023-02-08T05:39:18.702Z,10.10
2023-02-08T05:40:18.554Z,9.699
2023-02-08T05:41:18.777Z,9.199
2023-02-08T05:42:19.079Z,10.19
2023-02-08T05:43:19.188Z,9.300
2023-02-08T05:44:19.111Z,10.60
2023-02-08T05:45:19.335Z,8.800
2023-02-08T05:46:19.474Z,10.60
2023-02-08T05:47:18.633Z,9.300
2023-02-08T05:48:19.082Z,9.5
2023-02-08T05:49:18.955Z,10.5
2023-02-08T05:50:19.120Z,10.60
2023-02-08T05:51:19.223Z,10.10
2023-02-08T05:52:19.275Z,9
2023-02-08T05:53:18.980Z,9.399
2023-02-08T05:54:19.210Z,9.699
2023-02-08T05:55:19.185Z,10.39
2023-02-08T05:56:19.642Z,10
2023-02-08T05:57:18.797Z,10.60
2023-02-08T05:58:18.948Z,10.39
2023-02-08T05:59:19.347Z,9.399
2023-02-08T06:00:20.378Z,10
2023-02-08T06:01:19.094Z,9.800
2023-02-08T06:02:19.225Z,10.60
2023-02-08T06:03:19.000Z,11.30
2023-02-08T06:04:19.062Z,9.699
2023-02-08T06:05:19.422Z,9.399
2023-02-08T06:06:18.885Z,9.600
2023-02-08T06:07:19.577Z,11.19
2023-02-08T06:08:18.938Z,10.5
2023-02-08T06:09:19.189Z,9.300
2023-02-08T06:10:18.930Z,10.10
2023-02-08T06:11:19.537Z,10.5
2023-02-08T06:13:19.456Z,11.19
2023-02-08T06:14:18.622Z,10.69
2023-02-08T06:15:19.633Z,10.39
2023-02-08T06:16:20.046Z,10.60
2023-02-08T06:17:19.007Z,9.699
2023-02-08T06:18:19.185Z,10.10
2023-02-08T06:19:18.831Z,10.19
2023-02-08T06:21:19.222Z,11.19
2023-02-08T06:22:18.712Z,9.5
2023-02-08T06:23:19.030Z,10
2023-02-08T06:24:19.392Z,11.30
2023-02-08T06:25:19.233Z,10.60
2023-02-08T06:26:19.805Z,10.80
2023-02-08T06:27:19.241Z,12.5
2023-02-08T06:28:19.431Z,10.69
2023-02-08T06:30:19.233Z,12.5
2023-02-08T06:31:19.732Z,10
2023-02-08T06:32:18.901Z,13.19
2023-02-08T06:33:19.040Z,12.30
2023-02-08T06:34:18.923Z,12
2023-02-08T06:35:18.723Z,12.30
2023-02-08T06:36:18.409Z,12
2023-02-08T06:37:19.237Z,12.19
2023-02-08T06:38:18.959Z,11
2023-02-08T06:39:19.084Z,12.10
2023-02-08T06:40:19.515Z,12.60
2023-02-08T06:42:19.249Z,13.69
2023-02-08T06:43:19.312Z,11.39
2023-02-08T06:44:19.566Z,12.30
2023-02-08T06:45:19.265Z,12.5
2023-02-08T06:46:19.702Z,14.69
2023-02-08T06:47:18.918Z,15.30
2023-02-08T06:48:19.242Z,13.80
2023-02-08T06:49:19.161Z,15.5
2023-02-08T06:50:19.807Z,15.10
2023-02-08T06:51:18.825Z,14.39
2023-02-08T06:52:23.338Z,14.5
2023-02-08T06:53:18.725Z,18.39
2023-02-08T06:54:19.862Z,15.19
2023-02-08T06:55:19.734Z,16.10
2023-02-08T06:56:19.414Z,15
2023-02-08T06:57:19.447Z,20.89
2023-02-08T06:58:19.272Z,23.10
2023-02-08T06:59:19.776Z,23.60
2023-02-08T07:00:20.892Z,23.10
2023-02-08T07:01:19.381Z,21.60
2023-02-08T07:02:19.807Z,20.29
2023-02-08T07:03:18.891Z,17.29
2023-02-08T07:04:19.255Z,16.89
2023-02-08T07:05:20.123Z,17.5
2023-02-08T07:06:19.712Z,15.5
2023-02-08T07:07:19.074Z,16.39
2023-02-08T07:08:19.536Z,15.39
2023-02-08T07:09:19.009Z,14.5
2023-02-08T07:10:19.472Z,15
2023-02-08T07:11:19.088Z,14.39
2023-02-08T07:12:19.171Z,13.19
2023-02-08T07:13:18.887Z,13.5
2023-02-08T07:14:19.048Z,15
2023-02-08T07:15:19.163Z,14.80
2023-02-08T07:16:19.243Z,14.19
2023-02-08T07:17:19.291Z,15.10
2023-02-08T07:18:19.185Z,11.80
2023-02-08T07:19:19.397Z,12.39
2023-02-08T07:20:18.974Z,12.69
2023-02-08T07:21:19.657Z,13.89
2023-02-08T07:22:18.621Z,12.60
2023-02-08T07:23:18.803Z,12.80
2023-02-08T07:24:19.556Z,12
2023-02-08T07:25:19.425Z,11.10
2023-02-08T07:26:19.611Z,11.69
2023-02-08T07:27:19.170Z,11.39
2023-02-08T07:28:19.715Z,11.5
2023-02-08T07:29:19.086Z,12.60
2023-02-08T07:30:19.853Z,11.10
2023-02-08T07:31:19.100Z,10.80
2023-02-08T07:32:19.347Z,10.89
2023-02-08T07:33:18.910Z,11.60
2023-02-08T07:34:19.313Z,11.5
2023-02-08T07:35:19.102Z,11.80
2023-02-08T07:36:19.422Z,11.30
2023-02-08T07:37:19.128Z,10.60
2023-02-08T07:38:20.749Z,10.80
2023-02-08T07:39:19.317Z,11.5
2023-02-08T07:40:19.877Z,11.39
2023-02-08T07:41:18.981Z,11.80
2023-02-08T07:42:19.122Z,10.89
2023-02-08T07:43:19.818Z,12.5
2023-02-08T07:44:20.198Z,11.5
2023-02-08T07:45:19.454Z,11.60
2023-02-08T07:46:19.281Z,11.5
2023-02-08T07:47:19.442Z,15.69
2023-02-08T07:48:20.912Z,11.80
2023-02-08T07:49:19.981Z,10.5
2023-02-08T07:50:20.647Z,11
2023-02-08T07:51:19.763Z,12.39
2023-02-08T07:52:19.925Z,11.19
2023-02-08T07:53:19.814Z,13.19
2023-02-08T07:55:19.805Z,12.69
2023-02-08T07:56:19.581Z,11.80
2023-02-08T07:57:19.099Z,11.10
2023-02-08T07:58:19.346Z,10.5
2023-02-08T07:59:19.584Z,10.39
2023-02-08T08:00:27.825Z,10.10
2023-02-08T08:01:22.654Z,11.60
2023-02-08T08:02:19.650Z,12.10
2023-02-08T08:03:19.168Z,11.19
2023-02-08T08:04:19.585Z,10.30
2023-02-08T08:05:19.738Z,10.60
2023-02-08T08:06:33.413Z,10.89
2023-02-08T08:07:19.484Z,10.5
2023-02-08T08:08:19.093Z,10.80
2023-02-08T08:09:19.547Z,12.60
2023-02-08T08:10:18.840Z,12.80
2023-02-08T08:11:19.203Z,10.69
2023-02-08T08:12:19.951Z,11.39
2023-02-08T08:13:19.182Z,13
2023-02-08T08:14:19.463Z,11.80
2023-02-08T08:15:19.895Z,15.10
2023-02-08T08:16:33.009Z,13.60
2023-02-08T08:17:19.396Z,15.30
2023-02-08T08:18:19.004Z,16
2023-02-08T08:19:19.242Z,12.80
2023-02-08T08:20:19.809Z,13.39
2023-02-08T08:21:18.916Z,13.60
2023-02-08T08:22:19.336Z,14
2023-02-08T08:23:19.683Z,14.19
2023-02-08T08:24:18.779Z,14.80
2023-02-08T08:25:19.196Z,13.39
2023-02-08T08:26:19.295Z,12.39
2023-02-08T08:27:19.443Z,12.89
2023-02-08T08:28:19.926Z,14
2023-02-08T08:29:19.192Z,13.39
2023-02-08T08:30:19.892Z,12.30
2023-02-08T08:31:19.412Z,13.5
2023-02-08T08:32:19.560Z,12.60
2023-02-08T08:33:19.010Z,13.69
2023-02-08T08:34:41.040Z,13.60
2023-02-08T08:35:19.352Z,13.80
2023-02-08T08:36:19.211Z,13.69
2023-02-08T08:37:19.535Z,12.80
2023-02-08T08:39:19.618Z,14.19
2023-02-08T08:40:20.985Z,14
2023-02-08T08:41:20.656Z,11.69
2023-02-08T08:42:19.770Z,13.5
2023-02-08T08:43:20.948Z,11.89
2023-02-08T08:44:21.118Z,11.30
2023-02-08T08:45:20.727Z,11.60
2023-02-08T08:46:20.214Z,12.19
2023-02-08T08:47:20.954Z,12.80
2023-02-08T08:49:19.764Z,12.10
2023-02-08T08:50:20.945Z,13
2023-02-08T08:51:20.247Z,12.30
2023-02-08T08:52:20.590Z,13.5
2023-02-08T08:54:20.224Z,13
2023-02-08T08:55:20.416Z,14.19
2023-02-08T08:56:20.480Z,14.30
2023-02-08T08:57:20.769Z,12.80
2023-02-08T08:58:20.385Z,12.10
2023-02-08T08:59:20.384Z,13.89
2023-02-08T09:00:21.751Z,12
2023-02-08T09:01:20.513Z,15.39
2023-02-08T09:02:20.447Z,12.39
2023-02-08T09:03:20.471Z,14.60
2023-02-08T09:04:20.800Z,13.80
2023-02-08T09:05:20.321Z,13.19
2023-02-08T09:06:20.782Z,12.10
2023-02-08T09:07:20.271Z,14.69
2023-02-08T09:08:20.757Z,12.60
2023-02-08T09:09:20.521Z,13.19
2023-02-08T09:10:20.106Z,14
2023-02-08T09:11:20.305Z,13
2023-02-08T09:12:19.847Z,11.89
2023-02-08T09:13:19.900Z,14.80
2023-02-08T09:14:19.220Z,15.10
2023-02-08T09:15:20.135Z,12.69
2023-02-08T09:16:20.541Z,10.89
2023-02-08T09:17:20.597Z,13.39
2023-02-08T09:18:20.540Z,12.30
2023-02-08T09:19:20.012Z,13.69
2023-02-08T09:20:19.417Z,14.89
2023-02-08T09:21:19.562Z,12.80
2023-02-08T09:22:19.273Z,15.5
2023-02-08T09:23:19.813Z,14.39
2023-02-08T09:24:19.961Z,15.30
2023-02-08T09:25:20.003Z,14.39
2023-02-08T09:27:20.081Z,14.89
2023-02-08T09:28:19.753Z,12.39
2023-02-08T09:29:19.501Z,12.80
2023-02-08T09:30:20.078Z,12.19
2023-02-08T09:31:19.720Z,12.10
2023-02-08T09:32:19.501Z,12.69
2023-02-08T09:33:19.574Z,14.30
2023-02-08T09:34:19.461Z,15.10
2023-02-08T09:35:19.575Z,14.30
2023-02-08T09:36:19.172Z,11.69
2023-02-08T09:37:19.331Z,10.89
2023-02-08T09:38:19.733Z,12.69
2023-02-08T09:39:19.715Z,11.60
2023-02-08T09:40:20.144Z,12.5
2023-02-08T09:41:19.299Z,12.30
2023-02-08T09:42:21.098Z,11.89
2023-02-08T09:44:20.968Z,11.60
2023-02-08T09:45:21.479Z,12
2023-02-08T09:46:21.168Z,10.60
2023-02-08T09:47:20.795Z,11.5
2023-02-08T09:48:20.814Z,11.60
2023-02-08T09:49:20.993Z,11.89
2023-02-08T09:50:20.987Z,11.80
2023-02-08T09:51:21.284Z,13
2023-02-08T09:52:20.439Z,12.69
2023-02-08T09:53:21.020Z,12.89
2023-02-08T09:54:20.806Z,11.30
2023-02-08T09:55:21.102Z,10.89
2023-02-08T09:56:20.865Z,12.39
2023-02-08T09:57:21.108Z,11.5
2023-02-08T09:58:21.737Z,12.19
2023-02-08T09:59:20.905Z,11.89
2023-02-08T10:00:21.886Z,11.10
2023-02-08T10:01:20.942Z,11.39
2023-02-08T10:02:21.215Z,12.10
2023-02-08T10:03:21.076Z,11.10
2023-02-08T10:04:20.889Z,11.80
2023-02-08T10:05:22.268Z,11.89
2023-02-08T10:06:21.352Z,10.30
2023-02-08T10:07:21.223Z,11.5
2023-02-08T10:08:22.908Z,10.89
2023-02-08T10:09:21.467Z,9.800
2023-02-08T10:10:20.942Z,12.39
2023-02-08T10:11:20.522Z,10.69
2023-02-08T10:12:19.789Z,11.19
2023-02-08T10:13:21.464Z,11.39
2023-02-08T10:14:19.800Z,10.5
2023-02-08T10:15:20.908Z,10.19
2023-02-08T10:16:19.990Z,10.5
2023-02-08T10:17:19.573Z,11.39
2023-02-08T10:18:20.035Z,10.5
2023-02-08T10:19:20.309Z,10.89
2023-02-08T10:20:20.534Z,11
2023-02-08T10:22:20.217Z,9.399
2023-02-08T10:23:27.358Z,11.89
2023-02-08T10:24:19.552Z,13.19
2023-02-08T10:25:19.859Z,10.30
2023-02-08T10:26:19.796Z,12
2023-02-08T10:27:20.806Z,11.19
2023-02-08T10:28:20.316Z,11.89
2023-02-08T10:29:19.919Z,9.600
2023-02-08T10:30:20.544Z,11.10
2023-02-08T10:31:20.700Z,10.5
2023-02-08T10:32:20.562Z,11.30
2023-02-08T10:33:34.071Z,11.80
2023-02-08T10:34:20.456Z,10.80
2023-02-08T10:35:34.446Z,12.19
2023-02-08T10:36:19.969Z,11.39
2023-02-08T10:37:20.004Z,11.10
2023-02-08T10:38:19.680Z,10.89
2023-02-08T10:39:19.237Z,10.10
2023-02-08T10:40:19.993Z,11.39
2023-02-08T10:41:19.371Z,11
2023-02-08T10:42:19.619Z,9.699
2023-02-08T10:43:19.330Z,11.19
2023-02-08T10:44:18.951Z,13
2023-02-08T10:45:24.722Z,11
2023-02-08T10:46:19.479Z,12.10
2023-02-08T10:47:19.585Z,11.30
2023-02-08T10:48:19.508Z,11.69
2023-02-08T10:49:19.264Z,10
2023-02-08T10:50:19.907Z,11
2023-02-08T10:51:20.358Z,10.10
2023-02-08T10:52:19.573Z,10.19
2023-02-08T10:53:19.390Z,11.19
2023-02-08T10:54:19.341Z,10.5
2023-02-08T10:55:19.927Z,10.30
2023-02-08T10:56:19.916Z,10.10
2023-02-08T10:57:19.624Z,9.899
2023-02-08T10:58:19.403Z,11.5
2023-02-08T10:59:18.156Z,10.69
2023-02-08T11:00:20.981Z,12.69
2023-02-08T11:01:19.617Z,10.60
2023-02-08T11:02:19.937Z,11
2023-02-08T11:03:19.813Z,9.800
2023-02-08T11:04:19.547Z,12.19
2023-02-08T11:05:19.748Z,9
2023-02-08T11:06:20.181Z,9.300
2023-02-08T11:08:20.217Z,11.5
2023-02-08T11:09:19.937Z,10.5
2023-02-08T11:10:19.806Z,11.30
2023-02-08T11:11:20.460Z,9.300
2023-02-08T11:12:19.942Z,10.69
2023-02-08T11:13:19.489Z,9.899
2023-02-08T11:14:20.205Z,10
2023-02-08T11:15:20.170Z,11.10
2023-02-08T11:16:19.902Z,9.399
2023-02-08T11:17:19.763Z,9.5
2023-02-08T11:18:20.133Z,10.10
2023-02-08T11:19:19.556Z,8.899
2023-02-08T11:20:20.319Z,10.69
2023-02-08T11:21:19.783Z,9.699
2023-02-08T11:22:20.292Z,9.600
2023-02-08T11:23:19.933Z,8.600
2023-02-08T11:24:19.495Z,10.19
2023-02-08T11:25:19.888Z,8.800
2023-02-08T11:26:20.136Z,10.19
2023-02-08T11:27:19.964Z,10.39
2023-02-08T11:28:19.534Z,9.399
2023-02-08T11:29:19.776Z,8.399
2023-02-08T11:30:19.805Z,9.199
2023-02-08T11:31:19.673Z,9.100
2023-02-08T11:32:19.750Z,8.399
2023-02-08T11:33:19.520Z,8.800
2023-02-08T11:34:20.370Z,8.899
2023-02-08T11:35:20.522Z,10.19
2023-02-08T11:36:20.394Z,10
2023-02-08T11:37:20.087Z,8
2023-02-08T11:38:19.639Z,8.399
2023-02-08T11:39:19.955Z,7.599
2023-02-08T11:40:20.103Z,11.30
2023-02-08T11:41:19.962Z,7.800
2023-02-08T11:42:19.851Z,7.599
2023-02-08T11:43:19.629Z,8.600
2023-02-08T11:44:20.173Z,8.399
2023-02-08T11:45:19.788Z,8
2023-02-08T11:46:19.816Z,7.699
2023-02-08T11:47:21.600Z,8.899
2023-02-08T11:48:19.561Z,9.199
2023-02-08T11:49:20.455Z,7.599
2023-02-08T11:50:21.408Z,8.600
2023-02-08T11:51:20.496Z,8.5
2023-02-08T11:52:20.378Z,7.400
2023-02-08T11:53:20.293Z,8.300
2023-02-08T11:54:20.304Z,7.800
2023-02-08T11:55:21.002Z,8.5
2023-02-08T11:56:20.111Z,8
2023-02-08T11:57:19.843Z,8.5
2023-02-08T11:58:19.910Z,9
2023-02-08T12:00:21.179Z,8.600
2023-02-08T12:01:19.949Z,7.5
2023-02-08T12:02:20.545Z,9.399
2023-02-08T12:03:20.300Z,9
2023-02-08T12:04:20.066Z,10
2023-02-08T12:05:20.158Z,6.699
2023-02-08T12:06:19.566Z,7.400
2023-02-08T12:07:20.040Z,8.5
2023-02-08T12:08:19.857Z,7.400
2023-02-08T12:09:20.421Z,8.699
2023-02-08T12:10:20.338Z,7.199
2023-02-08T12:11:20.453Z,6.5
2023-02-08T12:12:20.644Z,8.5
2023-02-08T12:13:20.104Z,7.300
2023-02-08T12:14:19.436Z,7.900
2023-02-08T12:15:19.619Z,7.599
2023-02-08T12:16:19.707Z,7.199
2023-02-08T12:17:19.933Z,8.300
2023-02-08T12:18:19.524Z,8.100
2023-02-08T12:19:19.792Z,7.199
2023-02-08T12:20:19.619Z,7.5
2023-02-08T12:21:20.290Z,7.199
2023-02-08T12:22:19.932Z,6.900
2023-02-08T12:23:19.639Z,7
2023-02-08T12:24:19.731Z,7.099
2023-02-08T12:25:19.967Z,6.800
2023-02-08T12:26:20.187Z,8
2023-02-08T12:27:20.034Z,7.5
2023-02-08T12:28:19.828Z,7.800
2023-02-08T12:29:19.821Z,8.100
2023-02-08T12:30:20.210Z,7.599
2023-02-08T12:31:19.488Z,7.099
2023-02-08T12:32:19.623Z,6.5
2023-02-08T12:33:19.845Z,7.199
2023-02-08T12:34:19.891Z,7.099
2023-02-08T12:35:29.527Z,6.800
2023-02-08T12:36:20.116Z,7.5
2023-02-08T12:37:20.239Z,7.400
2023-02-08T12:38:24.902Z,6.800
2023-02-08T12:39:21.893Z,7
2023-02-08T12:40:20.243Z,7.5
2023-02-08T12:41:19.818Z,6.099
2023-02-08T12:42:19.915Z,7.900
2023-02-08T12:43:20.289Z,9.600
2023-02-08T12:44:19.814Z,8.5
2023-02-08T12:45:20.518Z,8.199
2023-02-08T12:46:19.948Z,7.400
2023-02-08T12:48:20.078Z,7
2023-02-08T12:49:19.528Z,7.400
2023-02-08T12:50:20.478Z,7.5
2023-02-08T12:53:19.533Z,7.199
2023-02-08T12:54:20.479Z,9.5
2023-02-08T12:55:20.354Z,7.900
2023-02-08T12:56:20.161Z,7.5
2023-02-08T12:57:19.476Z,7
2023-02-08T12:58:20.004Z,6.400
2023-02-08T12:59:19.773Z,7.400
2023-02-08T13:00:20.424Z,7.699
2023-02-08T13:01:20.202Z,7.199
2023-02-08T13:02:19.714Z,7
2023-02-08T13:03:19.628Z,7.699
2023-02-08T13:04:19.427Z,7.800
2023-02-08T13:05:19.304Z,7.199
2023-02-08T13:06:19.526Z,8.5
2023-02-08T13:07:19.739Z,8.699
2023-02-08T13:08:19.628Z,7.599
2023-02-08T13:09:19.931Z,10.10
2023-02-08T13:10:19.825Z,7.300
2023-02-08T13:11:20.433Z,7.599
2023-02-08T13:12:20.149Z,8.399
2023-02-08T13:13:20.099Z,7.800
2023-02-08T13:15:30.050Z,7.300
2023-02-08T13:16:19.869Z,8.399
2023-02-08T13:17:19.555Z,9.800
2023-02-08T13:18:19.820Z,7.099
2023-02-08T13:19:19.682Z,9.600
2023-02-08T13:20:20.310Z,7.800
2023-02-08T13:21:19.385Z,8.199
2023-02-08T13:22:20.671Z,8.699
2023-02-08T13:23:20.566Z,9
2023-02-08T13:24:20.725Z,8.399
2023-02-08T13:25:20.981Z,7.5
2023-02-08T13:26:21.079Z,8.800
2023-02-08T13:27:20.942Z,7.599
2023-02-08T13:28:21.326Z,12.5
2023-02-08T13:29:20.250Z,7.199
2023-02-08T13:30:20.364Z,8.100
2023-02-08T13:31:20.296Z,6.699
2023-02-08T13:32:19.880Z,7.800
2023-02-08T13:33:20.140Z,8.5